createdAt,value
2023-02-01T00:01:00.272Z,62.39
2023-02-01T00:04:02.641Z,61.75
2023-02-01T00:07:04.855Z,61.86
2023-02-01T00:10:09.064Z,62.06
2023-02-01T00:13:11.151Z,62.36
2023-02-01T00:16:17.596Z,62.47
2023-02-01T00:19:19.811Z,61.90
2023-02-01T00:22:22.275Z,61.99
2023-02-01T00:25:27.505Z,62.34
2023-02-01T00:28:29.731Z,62.03
2023-02-01T00:31:32.370Z,62.00
2023-02-01T00:34:35.545Z,61.87
2023-02-01T00:37:41.018Z,62.37
2023-02-01T00:40:43.108Z,62.17
2023-02-01T00:43:46.606Z,62.63
2023-02-01T00:46:48.733Z,62.78
2023-02-01T00:49:50.747Z,61.76
2023-02-01T00:52:54.024Z,62.25
2023-02-01T00:55:56.164Z,62.50
2023-02-01T00:58:58.306Z,62.30
2023-02-01T01:02:00.573Z,62.04
2023-02-01T01:05:02.803Z,62.72
2023-02-01T01:08:04.915Z,61.85
2023-02-01T01:11:11.832Z,62.81
2023-02-01T01:14:14.848Z,61.95
2023-02-01T01:17:18.162Z,62.08
2023-02-01T01:20:23.415Z,62.92
2023-02-01T01:23:25.957Z,62.93
2023-02-01T01:26:30.103Z,62.28
2023-02-01T01:29:32.430Z,62.65
2023-02-01T01:32:34.649Z,62.79
2023-02-01T01:35:36.918Z,62.47
2023-02-01T01:38:41.724Z,62.29
2023-02-01T01:41:44.159Z,61.78
2023-02-01T01:45:04.861Z,62.61
2023-02-01T01:48:26.056Z,62.25
2023-02-01T01:51:30.156Z,62.39
2023-02-01T01:54:59.148Z,62.41
2023-02-01T01:58:06.705Z,62.37
2023-02-01T02:01:09.923Z,62.37
2023-02-01T02:04:12.672Z,62.35
2023-02-01T02:07:19.885Z,62.52
2023-02-01T02:10:22.488Z,61.64
2023-02-01T02:13:25.500Z,62.16
2023-02-01T02:16:58.105Z,62.69
2023-02-01T02:20:24.992Z,62.09
2023-02-01T02:23:35.391Z,62.23
2023-02-01T02:27:05.418Z,61.94
2023-02-01T02:30:31.844Z,62.12
2023-02-01T02:33:54.004Z,62.58
2023-02-01T02:37:33.986Z,62.72
2023-02-01T02:40:54.747Z,62.79
2023-02-01T02:44:18.014Z,62.66
2023-02-01T02:47:29.729Z,62.45
2023-02-01T02:51:11.080Z,62.63
2023-02-01T02:54:40.311Z,62.97
2023-02-01T02:58:03.686Z,62.10
2023-02-01T03:01:25.773Z,61.93
2023-02-01T03:04:29.615Z,62.86
2023-02-01T03:08:10.856Z,62.67
2023-02-01T03:11:16.696Z,62.62
2023-02-01T03:14:22.691Z,62.27
2023-02-01T03:17:34.171Z,62.65
2023-02-01T03:20:40.036Z,62.03
2023-02-01T03:23:44.040Z,62.38
2023-02-01T03:26:52.532Z,62.65
2023-02-01T03:30:01.091Z,62.75
2023-02-01T03:33:14.881Z,62.74
2023-02-01T03:36:41.146Z,62.43
2023-02-01T03:40:00.789Z,63.34
2023-02-01T03:43:08.352Z,62.59
2023-02-01T03:46:18.749Z,63.02
2023-02-01T03:49:31.809Z,62.68
2023-02-01T03:52:43.935Z,63.10
2023-02-01T03:55:47.557Z,62.46
2023-02-01T03:59:00.083Z,62.54
2023-02-01T04:02:06.482Z,62.72
2023-02-01T04:05:09.498Z,62.83
2023-02-01T04:08:12.780Z,62.98
2023-02-01T04:11:14.938Z,62.88
2023-02-01T04:14:17.020Z,62.21
2023-02-01T04:17:19.721Z,62.30
2023-02-01T04:20:22.083Z,62.72
2023-02-01T04:23:24.479Z,62.27
2023-02-01T04:26:26.573Z,63.25
2023-02-01T04:29:28.718Z,62.17
2023-02-01T04:32:30.919Z,62.89
2023-02-01T04:35:32.960Z,62.22
2023-02-01T04:38:35.005Z,63.24
2023-02-01T04:41:37.503Z,62.73
2023-02-01T04:44:42.941Z,63.19
2023-02-01T04:47:44.999Z,62.51
2023-02-01T04:50:49.310Z,63.05
2023-02-01T04:53:52.646Z,62.31
2023-02-01T04:56:54.840Z,62.24
2023-02-01T04:59:57.174Z,62.58
2023-02-01T05:02:59.246Z,63.09
2023-02-01T05:06:01.601Z,62.56
2023-02-01T05:09:03.874Z,63.22
2023-02-01T05:12:24.714Z,63.08
2023-02-01T05:15:26.923Z,63.07
2023-02-01T05:18:29.985Z,62.96
2023-02-01T05:21:42.032Z,62.48
2023-02-01T05:24:46.127Z,63.05
2023-02-01T05:27:48.226Z,62.50
2023-02-01T05:30:50.351Z,62.96
2023-02-01T05:33:52.515Z,62.36
2023-02-01T05:36:54.678Z,63.40
2023-02-01T05:39:56.687Z,63.24
2023-02-01T05:42:58.685Z,62.94
2023-02-01T05:46:00.949Z,61.97
2023-02-01T05:49:03.452Z,62.09
2023-02-01T05:52:05.889Z,62.99
2023-02-01T05:55:08.362Z,62.02
2023-02-01T05:58:10.460Z,62.03
2023-02-01T06:01:12.917Z,62.62
2023-02-01T06:04:14.987Z,62.05
2023-02-01T06:07:17.823Z,62.15
2023-02-01T06:10:20.966Z,61.94
2023-02-01T06:13:23.264Z,62.81
2023-02-01T06:16:25.819Z,62.06
2023-02-01T06:19:28.211Z,62.57
2023-02-01T06:22:30.447Z,62.30
2023-02-01T06:25:33.762Z,61.96
2023-02-01T06:28:35.867Z,62.63
2023-02-01T06:31:38.075Z,61.71
2023-02-01T06:34:40.813Z,61.69
2023-02-01T06:37:43.877Z,61.67
2023-02-01T06:40:46.189Z,61.42
2023-02-01T06:43:48.632Z,61.69
2023-02-01T06:46:50.837Z,62.30
2023-02-01T06:49:52.953Z,61.34
2023-02-01T06:52:56.646Z,61.70
2023-02-01T06:56:01.345Z,61.62
2023-02-01T06:59:07.061Z,61.40
2023-02-01T07:02:12.487Z,61.90
2023-02-01T07:05:14.796Z,60.81
2023-02-01T07:08:17.136Z,61.21
2023-02-01T07:11:20.389Z,61.79
2023-02-01T07:14:22.493Z,61.61
2023-02-01T07:17:24.846Z,60.85
2023-02-01T07:20:26.999Z,60.40
2023-02-01T07:23:29.827Z,60.82
2023-02-01T07:26:32.070Z,60.61
2023-02-01T07:29:34.228Z,60.58
2023-02-01T07:32:36.452Z,60.67
2023-02-01T07:35:38.530Z,59.89
2023-02-01T07:38:44.203Z,59.49
2023-02-01T07:41:47.595Z,59.92
2023-02-01T07:44:49.628Z,60.10
2023-02-01T07:47:53.562Z,60.04
2023-02-01T07:51:15.851Z,59.60
2023-02-01T07:54:18.015Z,59.46
2023-02-01T07:57:20.510Z,59.37
2023-02-01T08:00:41.431Z,59.90
2023-02-01T08:03:43.676Z,59.03
2023-02-01T08:06:46.006Z,59.20
2023-02-01T08:09:48.122Z,59.48
2023-02-01T08:12:50.411Z,59.55
2023-02-01T08:15:52.602Z,59.44
2023-02-01T08:18:55.384Z,58.93
2023-02-01T08:21:57.532Z,58.62
2023-02-01T08:25:02.413Z,59.24
2023-02-01T08:28:04.781Z,58.90
2023-02-01T08:31:11.107Z,59.16
2023-02-01T08:34:13.713Z,59.05
2023-02-01T08:37:15.714Z,58.65
2023-02-01T08:40:18.524Z,58.25
2023-02-01T08:43:20.739Z,58.10
2023-02-01T08:46:24.029Z,58.05
2023-02-01T08:49:26.251Z,58.41
2023-02-01T08:52:28.331Z,58.67
2023-02-01T08:55:30.477Z,58.82
2023-02-01T08:58:32.730Z,59.02
2023-02-01T09:01:34.914Z,58.98
2023-02-01T09:04:36.967Z,59.36
2023-02-01T09:07:39.136Z,58.56
2023-02-01T09:10:42.348Z,58.90
2023-02-01T09:13:46.200Z,58.28
2023-02-01T09:16:48.993Z,58.10
2023-02-01T09:19:51.262Z,58.67
2023-02-01T09:22:55.700Z,58.60
2023-02-01T09:26:04.399Z,57.92
2023-02-01T09:29:14.767Z,58.03
2023-02-01T09:32:17.140Z,58.33
2023-02-01T09:35:20.133Z,58.68
2023-02-01T09:38:22.297Z,58.18
2023-02-01T09:41:42.208Z,57.89
2023-02-01T09:45:02.834Z,58.12
2023-02-01T09:48:14.214Z,58.57
2023-02-01T09:51:25.239Z,58.06
2023-02-01T09:54:40.542Z,58.35
2023-02-01T09:57:55.519Z,57.90
2023-02-01T10:01:04.189Z,57.73
2023-02-01T10:04:11.551Z,57.88
2023-02-01T10:07:45.436Z,57.88
2023-02-01T10:10:50.276Z,57.47
2023-02-01T10:14:59.694Z,57.50
2023-02-01T10:18:20.394Z,57.43
2023-02-01T10:21:42.713Z,57.40
2023-02-01T10:25:14.314Z,57.28
2023-02-01T10:28:18.971Z,57.09
2023-02-01T10:31:25.686Z,57.46
2023-02-01T10:34:35.487Z,56.93
2023-02-01T10:37:37.659Z,56.85
2023-02-01T10:40:39.884Z,57.43
2023-02-01T10:43:43.440Z,57.18
2023-02-01T10:46:46.102Z,57.02
2023-02-01T10:50:03.082Z,56.65
2023-02-01T10:53:26.281Z,56.52
2023-02-01T10:56:29.676Z,56.44
2023-02-01T10:59:34.525Z,56.59
2023-02-01T11:02:37.044Z,57.06
2023-02-01T11:05:47.199Z,56.61
2023-02-01T11:08:55.092Z,56.64
2023-02-01T11:11:59.995Z,56.19
2023-02-01T11:15:23.618Z,55.98
2023-02-01T11:18:30.065Z,56.35
2023-02-01T11:21:33.758Z,56.08
2023-02-01T11:24:39.469Z,56.10
2023-02-01T11:27:53.207Z,55.97
2023-02-01T11:31:01.885Z,55.95
2023-02-01T11:34:17.907Z,55.82
2023-02-01T11:37:22.170Z,55.83
2023-02-01T11:40:36.336Z,55.81
2023-02-01T11:43:40.918Z,56.63
2023-02-01T11:46:43.080Z,56.30
2023-02-01T11:49:45.417Z,56.50
2023-02-01T11:53:11.044Z,56.51
2023-02-01T11:56:29.595Z,55.67
2023-02-01T12:00:02.425Z,55.80
2023-02-01T12:03:47.118Z,56.04
2023-02-01T12:07:00.742Z,55.99
2023-02-01T12:10:10.967Z,55.80
2023-02-01T12:13:44.180Z,56.08
2023-02-01T12:17:16.224Z,55.85
2023-02-01T12:20:50.889Z,55.75
2023-02-01T12:23:58.554Z,55.82
2023-02-01T12:27:30.606Z,55.73
2023-02-01T12:31:07.464Z,55.84
2023-02-01T12:34:22.993Z,56.15
2023-02-01T12:37:45.633Z,56.18
2023-02-01T12:41:07.011Z,55.97
2023-02-01T12:44:26.272Z,55.87
2023-02-01T12:48:05.934Z,55.90
2023-02-01T12:51:16.479Z,56.12
2023-02-01T12:54:56.989Z,56.01
2023-02-01T12:58:18.140Z,55.87
2023-02-01T13:01:30.079Z,56.04
2023-02-01T13:04:42.575Z,55.59
2023-02-01T13:07:57.736Z,55.93
2023-02-01T13:11:36.626Z,55.98
2023-02-01T13:14:55.128Z,55.63
2023-02-01T13:18:02.269Z,55.88
2023-02-01T13:21:17.600Z,55.81
2023-02-01T13:24:44.910Z,55.24
2023-02-01T13:27:47.726Z,55.45
2023-02-01T13:31:00.627Z,55.54
2023-02-01T13:34:39.758Z,55.76
2023-02-01T13:37:44.799Z,55.75
2023-02-01T13:41:07.297Z,55.79
2023-02-01T13:44:19.674Z,55.55
2023-02-01T13:47:32.621Z,55.76
2023-02-01T13:50:39.776Z,56.12
2023-02-01T13:53:49.550Z,55.94
2023-02-01T13:56:54.229Z,56.00
2023-02-01T14:00:08.570Z,56.35
2023-02-01T14:03:22.720Z,56.01
2023-02-01T14:06:28.394Z,56.27
2023-02-01T14:09:39.973Z,56.18
2023-02-01T14:12:49.408Z,55.97
2023-02-01T14:16:13.311Z,56.34
2023-02-01T14:19:40.980Z,56.12
2023-02-01T14:22:43.150Z,56.50
2023-02-01T14:25:46.570Z,56.31
2023-02-01T14:28:54.003Z,56.97
2023-02-01T14:32:08.118Z,56.56
2023-02-01T14:35:22.086Z,56.45
2023-02-01T14:38:24.658Z,56.88
2023-02-01T14:41:35.924Z,56.89
2023-02-01T14:44:38.352Z,56.83
2023-02-01T14:47:40.935Z,56.87
2023-02-01T14:50:48.049Z,56.53
2023-02-01T14:53:53.322Z,56.82
2023-02-01T14:56:56.498Z,56.92
2023-02-01T15:00:10.031Z,56.98
2023-02-01T15:03:17.890Z,57.46
2023-02-01T15:06:27.942Z,57.18
2023-02-01T15:09:32.772Z,57.04
2023-02-01T15:12:42.150Z,57.69
2023-02-01T15:15:46.274Z,57.64
2023-02-01T15:18:48.536Z,57.65
2023-02-01T15:21:53.585Z,57.46
2023-02-01T15:25:01.574Z,57.64
2023-02-01T15:28:04.288Z,57.52
2023-02-01T15:31:06.904Z,57.71
2023-02-01T15:34:10.767Z,57.73
2023-02-01T15:37:19.773Z,58.02
2023-02-01T15:40:25.608Z,57.62
2023-02-01T15:43:37.588Z,57.45
2023-02-01T15:46:43.745Z,57.75
2023-02-01T15:49:53.152Z,57.96
2023-02-01T15:52:59.320Z,58.01
2023-02-01T15:56:04.972Z,57.98
2023-02-01T15:59:18.557Z,58.12
2023-02-01T16:02:44.905Z,58.15
2023-02-01T16:05:47.341Z,58.53
2023-02-01T16:08:55.685Z,58.17
2023-02-01T16:12:08.293Z,57.91
2023-02-01T16:15:15.583Z,58.05
2023-02-01T16:18:19.874Z,58.16
2023-02-01T16:21:22.050Z,58.66
2023-02-01T16:24:27.017Z,58.53
2023-02-01T16:27:29.221Z,58.57
2023-02-01T16:30:32.412Z,58.60
2023-02-01T16:33:35.926Z,57.72
2023-02-01T16:36:38.179Z,57.93
2023-02-01T16:39:40.677Z,58.28
2023-02-01T16:42:42.922Z,57.99
2023-02-01T16:45:49.877Z,57.84
2023-02-01T16:49:01.051Z,58.19
2023-02-01T16:52:05.502Z,58.57
2023-02-01T16:55:27.993Z,58.70
2023-02-01T16:58:32.921Z,58.77
2023-02-01T17:01:35.703Z,58.48
2023-02-01T17:04:38.016Z,58.80
2023-02-01T17:07:42.160Z,58.50
2023-02-01T17:10:50.901Z,57.74
2023-02-01T17:13:54.115Z,58.15
2023-02-01T17:16:56.499Z,57.55
2023-02-01T17:19:58.893Z,53.53
2023-02-01T17:23:01.596Z,47.57
2023-02-01T17:26:04.071Z,44.64
2023-02-01T17:29:06.140Z,42.19
2023-02-01T17:32:21.683Z,40.43
2023-02-01T17:35:27.432Z,39.91
2023-02-01T17:38:29.978Z,39.79
2023-02-01T17:41:32.532Z,41.01
2023-02-01T17:44:36.397Z,42.44
2023-02-01T17:47:39.585Z,43.99
2023-02-01T17:50:42.065Z,45.29
2023-02-01T17:53:46.090Z,46.97
2023-02-01T17:56:48.861Z,47.80
2023-02-01T17:59:50.877Z,48.58
2023-02-01T18:02:53.241Z,48.34
2023-02-01T18:05:57.817Z,50.45
2023-02-01T18:08:59.887Z,49.75
2023-02-01T18:12:05.007Z,49.66
2023-02-01T18:15:33.334Z,49.99
2023-02-01T18:18:37.325Z,49.51
2023-02-01T18:21:43.487Z,48.96
2023-02-01T18:24:46.056Z,49.83
2023-02-01T18:27:49.912Z,50.50
2023-02-01T18:30:53.205Z,50.56
2023-02-01T18:33:58.538Z,50.90
2023-02-01T18:37:01.796Z,50.31
2023-02-01T18:40:04.663Z,46.85
2023-02-01T18:43:06.778Z,43.74
2023-02-01T18:46:11.356Z,44.33
2023-02-01T18:49:19.103Z,45.89
2023-02-01T18:52:21.140Z,44.00
2023-02-01T18:55:36.574Z,44.26
2023-02-01T18:58:40.481Z,45.99
2023-02-01T19:01:44.748Z,44.93
2023-02-01T19:04:55.274Z,45.71
2023-02-01T19:07:57.488Z,46.01
2023-02-01T19:11:07.438Z,42.86
2023-02-01T19:14:14.318Z,43.09
2023-02-01T19:17:16.381Z,45.34
2023-02-01T19:20:23.320Z,44.60
2023-02-01T19:23:26.825Z,43.22
2023-02-01T19:26:31.216Z,43.32
2023-02-01T19:29:34.487Z,69.84
2023-02-01T19:32:39.234Z,47.82
2023-02-01T19:35:44.731Z,47.41
2023-02-01T19:38:47.794Z,49.71
2023-02-01T19:41:51.699Z,48.39
2023-02-01T19:44:53.946Z,45.32
2023-02-01T19:47:56.564Z,46.54
2023-02-01T19:51:01.105Z,45.64
2023-02-01T19:54:04.968Z,45.72
2023-02-01T19:57:11.871Z,46.46
2023-02-01T20:00:19.640Z,45.85
2023-02-01T20:03:25.063Z,42.65
2023-02-01T20:06:33.863Z,43.57
2023-02-01T20:09:42.845Z,44.28
2023-02-01T20:12:48.982Z,43.85
2023-02-01T20:19:14.771Z,45.92
2023-02-01T20:22:18.663Z,48.91
2023-02-01T20:25:24.549Z,48.00
2023-02-01T20:28:31.548Z,49.87
2023-02-01T20:31:36.653Z,47.23
2023-02-01T20:34:40.057Z,45.36
2023-02-01T20:37:43.100Z,47.43
2023-02-01T20:40:45.624Z,68.71
2023-02-01T20:43:50.093Z,43.94
2023-02-01T20:46:53.603Z,39.83
2023-02-01T20:49:55.929Z,37.25
2023-02-01T20:53:00.431Z,32.29
2023-02-01T20:56:06.942Z,30.16
2023-02-01T20:59:10.957Z,30.31
2023-02-01T21:05:40.185Z,33.91
2023-02-01T21:08:44.459Z,38.18
2023-02-01T21:11:47.015Z,39.42
2023-02-01T21:15:00.862Z,38.18
2023-02-01T21:18:06.775Z,37.20
2023-02-01T21:21:11.969Z,38.72
2023-02-01T21:24:16.536Z,40.18
2023-02-01T21:27:19.491Z,38.29
2023-02-01T21:30:24.260Z,37.80
2023-02-01T21:33:28.611Z,38.22
2023-02-01T21:36:38.099Z,39.43
2023-02-01T21:39:45.049Z,38.55
2023-02-01T21:55:57.178Z,43.40
2023-02-01T22:02:22.038Z,44.08
2023-02-01T22:08:43.582Z,44.44
2023-02-01T22:11:47.592Z,45.38
2023-02-01T22:21:29.690Z,46.12
2023-02-01T22:31:13.104Z,46.24
2023-02-01T22:34:25.171Z,46.54
2023-02-01T22:37:29.093Z,47.05
2023-02-01T22:40:32.269Z,46.49
2023-02-01T22:46:59.508Z,47.78
2023-02-01T22:50:11.111Z,47.70
2023-02-01T22:53:17.289Z,47.65
2023-02-01T22:56:30.666Z,47.95
2023-02-01T23:09:58.247Z,47.46
2023-02-01T23:19:39.239Z,46.95
2023-02-01T23:22:47.891Z,46.97
2023-02-01T23:25:52.339Z,47.53
2023-02-01T23:28:59.891Z,47.16
2023-02-01T23:32:02.273Z,47.68
2023-02-01T23:38:31.689Z,47.60
2023-02-01T23:41:42.279Z,47.47
2023-02-01T23:51:19.807Z,47.16
2023-02-01T23:54:24.636Z,47.17
2023-02-01T23:57:31.000Z,46.88
